sensor_id;sensor_type;location;lat;lon;timestamp;P1;durP1;ratioP1;P2;durP2;ratioP2
68987;SDS011;56038;46.080;11.116;2024-03-17T00:01:06;12.43;;;10.00;;
68987;SDS011;56038;46.080;11.116;2024-03-17T00:06:07;16.75;;;11.57;;
68987;SDS011;56038;46.080;11.116;2024-03-17T00:11:11;15.95;;;12.30;;
68987;SDS011;56038;46.080;11.116;2024-03-17T00:16:13;12.65;;;10.82;;
68987;SDS011;56038;46.080;11.116;2024-03-17T00:21:18;16.63;;;11.82;;
68987;SDS011;56038;46.080;11.116;2024-03-17T00:26:22;11.32;;;8.65;;
68987;SDS011;56038;46.080;11.116;2024-03-17T00:31:23;17.40;;;10.98;;
68987;SDS011;56038;46.080;11.116;2024-03-17T00:36:25;13.40;;;10.60;;
68987;SDS011;56038;46.080;11.116;2024-03-17T00:41:28;15.38;;;11.02;;
68987;SDS011;56038;46.080;11.116;2024-03-17T00:46:30;12.80;;;9.68;;
68987;SDS011;56038;46.080;11.116;2024-03-17T00:51:32;16.60;;;10.70;;
68987;SDS011;56038;46.080;11.116;2024-03-17T00:56:35;14.90;;;11.00;;
68987;SDS011;56038;46.080;11.116;2024-03-17T01:01:36;13.30;;;8.88;;
68987;SDS011;56038;46.080;11.116;2024-03-17T01:06:38;11.68;;;8.95;;
68987;SDS011;56038;46.080;11.116;2024-03-17T01:11:42;10.40;;;7.47;;
68987;SDS011;56038;46.080;11.116;2024-03-17T01:16:43;9.50;;;6.28;;
68987;SDS011;56038;46.080;11.116;2024-03-17T01:21:46;6.63;;;5.80;;
68987;SDS011;56038;46.080;11.116;2024-03-17T01:26:49;10.32;;;6.85;;
68987;SDS011;56038;46.080;11.116;2024-03-17T01:31:50;11.38;;;8.30;;
68987;SDS011;56038;46.080;11.116;2024-03-17T01:36:52;10.35;;;7.25;;
68987;SDS011;56038;46.080;11.116;2024-03-17T01:41:55;10.00;;;7.18;;
68987;SDS011;56038;46.080;11.116;2024-03-17T01:46:57;9.27;;;7.18;;
68987;SDS011;56038;46.080;11.116;2024-03-17T01:52:00;9.38;;;6.88;;
68987;SDS011;56038;46.080;11.116;2024-03-17T01:57:05;9.15;;;7.07;;
68987;SDS011;56038;46.080;11.116;2024-03-17T02:02:07;8.43;;;6.47;;
68987;SDS011;56038;46.080;11.116;2024-03-17T02:07:09;9.25;;;6.95;;
68987;SDS011;56038;46.080;11.116;2024-03-17T02:12:12;11.00;;;8.13;;
68987;SDS011;56038;46.080;11.116;2024-03-17T02:17:13;9.57;;;6.90;;
68987;SDS011;56038;46.080;11.116;2024-03-17T02:22:16;10.43;;;7.03;;
68987;SDS011;56038;46.080;11.116;2024-03-17T02:27:18;8.95;;;6.90;;
68987;SDS011;56038;46.080;11.116;2024-03-17T02:32:20;9.20;;;6.78;;
68987;SDS011;56038;46.080;11.116;2024-03-17T02:37:24;12.13;;;6.38;;
68987;SDS011;56038;46.080;11.116;2024-03-17T02:42:25;6.72;;;5.75;;
68987;SDS011;56038;46.080;11.116;2024-03-17T02:47:27;7.82;;;6.20;;
68987;SDS011;56038;46.080;11.116;2024-03-17T02:52:30;6.57;;;5.18;;
68987;SDS011;56038;46.080;11.116;2024-03-17T02:57:32;7.03;;;5.47;;
68987;SDS011;56038;46.080;11.116;2024-03-17T03:02:33;5.95;;;5.03;;
68987;SDS011;56038;46.080;11.116;2024-03-17T03:07:36;7.20;;;5.07;;
68987;SDS011;56038;46.080;11.116;2024-03-17T03:12:38;5.55;;;4.45;;
68987;SDS011;56038;46.080;11.116;2024-03-17T03:17:40;7.68;;;4.85;;
68987;SDS011;56038;46.080;11.116;2024-03-17T03:22:43;4.72;;;3.97;;
68987;SDS011;56038;46.080;11.116;2024-03-17T03:27:44;5.20;;;3.85;;
68987;SDS011;56038;46.080;11.116;2024-03-17T03:32:46;3.58;;;3.28;;
68987;SDS011;56038;46.080;11.116;2024-03-17T03:37:51;4.68;;;3.72;;
68987;SDS011;56038;46.080;11.116;2024-03-17T03:42:53;3.08;;;2.53;;
68987;SDS011;56038;46.080;11.116;2024-03-17T03:47:54;4.15;;;2.92;;
68987;SDS011;56038;46.080;11.116;2024-03-17T03:52:57;5.65;;;2.95;;
68987;SDS011;56038;46.080;11.116;2024-03-17T03:57:59;5.88;;;3.30;;
68987;SDS011;56038;46.080;11.116;2024-03-17T04:03:01;6.38;;;3.72;;
68987;SDS011;56038;46.080;11.116;2024-03-17T04:08:04;4.70;;;2.83;;
68987;SDS011;56038;46.080;11.116;2024-03-17T04:13:06;3.55;;;2.88;;
68987;SDS011;56038;46.080;11.116;2024-03-17T04:18:08;4.43;;;3.60;;
68987;SDS011;56038;46.080;11.116;2024-03-17T04:23:11;2.88;;;2.40;;
68987;SDS011;56038;46.080;11.116;2024-03-17T04:28:13;3.67;;;2.50;;
68987;SDS011;56038;46.080;11.116;2024-03-17T04:33:15;5.20;;;3.45;;
68987;SDS011;56038;46.080;11.116;2024-03-17T04:38:19;3.97;;;3.03;;
68987;SDS011;56038;46.080;11.116;2024-03-17T04:43:20;3.25;;;2.95;;
68987;SDS011;56038;46.080;11.116;2024-03-17T04:48:22;4.07;;;3.03;;
68987;SDS011;56038;46.080;11.116;2024-03-17T04:53:25;4.18;;;3.03;;
68987;SDS011;56038;46.080;11.116;2024-03-17T04:58:27;3.08;;;2.78;;
68987;SDS011;56038;46.080;11.116;2024-03-17T05:03:29;3.83;;;2.75;;
68987;SDS011;56038;46.080;11.116;2024-03-17T05:08:32;3.20;;;2.90;;
68987;SDS011;56038;46.080;11.116;2024-03-17T05:13:36;2.97;;;2.67;;
68987;SDS011;56038;46.080;11.116;2024-03-17T05:18:38;4.72;;;3.55;;
68987;SDS011;56038;46.080;11.116;2024-03-17T05:23:41;4.50;;;3.05;;
68987;SDS011;56038;46.080;11.116;2024-03-17T05:28:43;3.58;;;2.47;;
68987;SDS011;56038;46.080;11.116;2024-03-17T05:33:45;3.75;;;2.83;;
68987;SDS011;56038;46.080;11.116;2024-03-17T05:38:48;3.05;;;2.70;;
68987;SDS011;56038;46.080;11.116;2024-03-17T05:43:50;5.40;;;3.00;;
68987;SDS011;56038;46.080;11.116;2024-03-17T05:48:51;2.63;;;2.30;;
68987;SDS011;56038;46.080;11.116;2024-03-17T05:53:54;4.18;;;2.80;;
68987;SDS011;56038;46.080;11.116;2024-03-17T05:58:58;3.88;;;2.90;;
68987;SDS011;56038;46.080;11.116;2024-03-17T06:04:00;2.20;;;1.98;;
68987;SDS011;56038;46.080;11.116;2024-03-17T06:09:05;2.30;;;2.10;;
68987;SDS011;56038;46.080;11.116;2024-03-17T06:14:09;2.73;;;2.20;;
68987;SDS011;56038;46.080;11.116;2024-03-17T06:19:12;2.38;;;2.17;;
68987;SDS011;56038;46.080;11.116;2024-03-17T06:24:16;2.63;;;2.30;;
68987;SDS011;56038;46.080;11.116;2024-03-17T06:29:17;14.25;;;9.02;;
68987;SDS011;56038;46.080;11.116;2024-03-17T06:34:19;4.28;;;3.20;;
68987;SDS011;56038;46.080;11.116;2024-03-17T06:39:22;2.97;;;2.50;;
68987;SDS011;56038;46.080;11.116;2024-03-17T06:44:24;2.63;;;2.33;;
68987;SDS011;56038;46.080;11.116;2024-03-17T06:54:32;3.22;;;2.40;;
68987;SDS011;56038;46.080;11.116;2024-03-17T06:59:34;1.92;;;1.83;;
68987;SDS011;56038;46.080;11.116;2024-03-17T07:04:36;2.28;;;2.03;;
68987;SDS011;56038;46.080;11.116;2024-03-17T07:09:39;2.20;;;2.00;;
68987;SDS011;56038;46.080;11.116;2024-03-17T07:14:41;1.98;;;1.77;;
68987;SDS011;56038;46.080;11.116;2024-03-17T07:19:42;2.80;;;2.13;;
68987;SDS011;56038;46.080;11.116;2024-03-17T07:24:46;2.05;;;1.80;;
68987;SDS011;56038;46.080;11.116;2024-03-17T07:29:47;1.98;;;1.60;;
68987;SDS011;56038;46.080;11.116;2024-03-17T07:34:49;2.20;;;2.00;;
68987;SDS011;56038;46.080;11.116;2024-03-17T07:39:52;2.75;;;1.98;;
68987;SDS011;56038;46.080;11.116;2024-03-17T07:44:54;2.35;;;1.80;;
68987;SDS011;56038;46.080;11.116;2024-03-17T07:49:55;2.25;;;1.58;;
68987;SDS011;56038;46.080;11.116;2024-03-17T07:55:01;2.67;;;1.67;;
68987;SDS011;56038;46.080;11.116;2024-03-17T08:00:02;3.17;;;1.65;;
68987;SDS011;56038;46.080;11.116;2024-03-17T08:05:05;1.38;;;1.27;;
68987;SDS011;56038;46.080;11.116;2024-03-17T08:10:09;2.33;;;1.55;;
68987;SDS011;56038;46.080;11.116;2024-03-17T08:15:10;2.35;;;1.67;;
68987;SDS011;56038;46.080;11.116;2024-03-17T08:20:12;3.72;;;2.05;;
68987;SDS011;56038;46.080;11.116;2024-03-17T08:25:15;2.08;;;1.88;;
68987;SDS011;56038;46.080;11.116;2024-03-17T08:30:17;2.85;;;1.70;;
68987;SDS011;56038;46.080;11.116;2024-03-17T08:35:19;1.85;;;1.70;;
68987;SDS011;56038;46.080;11.116;2024-03-17T08:40:22;1.67;;;1.58;;
68987;SDS011;56038;46.080;11.116;2024-03-17T08:45:24;1.58;;;1.48;;
68987;SDS011;56038;46.080;11.116;2024-03-17T08:50:25;1.25;;;1.15;;
68987;SDS011;56038;46.080;11.116;2024-03-17T08:55:30;1.10;;;0.90;;
68987;SDS011;56038;46.080;11.116;2024-03-17T09:00:31;2.13;;;1.00;;
68987;SDS011;56038;46.080;11.116;2024-03-17T09:05:33;1.52;;;1.02;;
68987;SDS011;56038;46.080;11.116;2024-03-17T09:10:39;1.38;;;1.25;;
68987;SDS011;56038;46.080;11.116;2024-03-17T09:15:49;2.35;;;1.33;;
68987;SDS011;56038;46.080;11.116;2024-03-17T09:20:55;0.88;;;0.75;;
68987;SDS011;56038;46.080;11.116;2024-03-17T09:26:02;1.23;;;0.88;;
68987;SDS011;56038;46.080;11.116;2024-03-17T09:31:05;1.35;;;0.93;;
68987;SDS011;56038;46.080;11.116;2024-03-17T09:36:07;0.77;;;0.77;;
68987;SDS011;56038;46.080;11.116;2024-03-17T09:41:19;0.88;;;0.80;;
68987;SDS011;56038;46.080;11.116;2024-03-17T09:46:22;2.08;;;0.80;;
68987;SDS011;56038;46.080;11.116;2024-03-17T09:51:26;1.30;;;1.20;;
68987;SDS011;56038;46.080;11.116;2024-03-17T09:56:29;0.95;;;0.80;;
68987;SDS011;56038;46.080;11.116;2024-03-17T10:01:33;2.50;;;1.00;;
68987;SDS011;56038;46.080;11.116;2024-03-17T10:06:34;0.95;;;0.85;;
68987;SDS011;56038;46.080;11.116;2024-03-17T10:11:47;1.70;;;1.05;;
68987;SDS011;56038;46.080;11.116;2024-03-17T10:16:50;1.75;;;0.80;;
68987;SDS011;56038;46.080;11.116;2024-03-17T10:21:57;0.60;;;0.55;;
68987;SDS011;56038;46.080;11.116;2024-03-17T10:27:01;9.40;;;7.13;;
68987;SDS011;56038;46.080;11.116;2024-03-17T10:32:04;2.00;;;1.90;;
68987;SDS011;56038;46.080;11.116;2024-03-17T10:37:14;2.40;;;1.00;;
68987;SDS011;56038;46.080;11.116;2024-03-17T10:42:22;1.05;;;0.93;;
68987;SDS011;56038;46.080;11.116;2024-03-17T10:47:28;1.38;;;1.00;;
68987;SDS011;56038;46.080;11.116;2024-03-17T10:52:30;1.00;;;0.95;;
68987;SDS011;56038;46.080;11.116;2024-03-17T10:57:37;0.75;;;0.75;;
68987;SDS011;56038;46.080;11.116;2024-03-17T11:02:48;0.68;;;0.60;;
68987;SDS011;56038;46.080;11.116;2024-03-17T11:07:52;0.50;;;0.50;;
68987;SDS011;56038;46.080;11.116;2024-03-17T11:12:56;0.63;;;0.50;;
68987;SDS011;56038;46.080;11.116;2024-03-17T11:23:35;0.55;;;0.55;;
68987;SDS011;56038;46.080;11.116;2024-03-17T11:28:50;0.77;;;0.50;;
68987;SDS011;56038;46.080;11.116;2024-03-17T11:33:53;0.43;;;0.40;;
68987;SDS011;56038;46.080;11.116;2024-03-17T11:39:01;0.80;;;0.60;;
68987;SDS011;56038;46.080;11.116;2024-03-17T11:44:14;1.08;;;0.85;;
68987;SDS011;56038;46.080;11.116;2024-03-17T11:49:19;0.30;;;0.30;;
68987;SDS011;56038;46.080;11.116;2024-03-17T11:54:23;0.60;;;0.40;;
68987;SDS011;56038;46.080;11.116;2024-03-17T11:59:28;0.40;;;0.40;;
68987;SDS011;56038;46.080;11.116;2024-03-17T12:04:31;2.38;;;0.50;;
68987;SDS011;56038;46.080;11.116;2024-03-17T12:09:32;0.35;;;0.35;;
68987;SDS011;56038;46.080;11.116;2024-03-17T12:14:36;0.30;;;0.30;;
68987;SDS011;56038;46.080;11.116;2024-03-17T12:19:38;0.97;;;0.50;;
68987;SDS011;56038;46.080;11.116;2024-03-17T12:24:40;0.70;;;0.40;;
68987;SDS011;56038;46.080;11.116;2024-03-17T12:29:46;0.60;;;0.40;;
68987;SDS011;56038;46.080;11.116;2024-03-17T12:34:50;0.52;;;0.50;;
68987;SDS011;56038;46.080;11.116;2024-03-17T12:39:53;0.50;;;0.50;;
68987;SDS011;56038;46.080;11.116;2024-03-17T12:44:56;0.40;;;0.40;;
68987;SDS011;56038;46.080;11.116;2024-03-17T12:49:59;0.80;;;0.55;;
68987;SDS011;56038;46.080;11.116;2024-03-17T12:55:02;0.40;;;0.40;;
68987;SDS011;56038;46.080;11.116;2024-03-17T13:00:24;0.43;;;0.43;;
68987;SDS011;56038;46.080;11.116;2024-03-17T13:05:34;1.52;;;0.38;;
68987;SDS011;56038;46.080;11.116;2024-03-17T13:10:36;0.55;;;0.52;;
68987;SDS011;56038;46.080;11.116;2024-03-17T13:15:39;0.47;;;0.40;;
68987;SDS011;56038;46.080;11.116;2024-03-17T13:20:41;0.30;;;0.30;;
68987;SDS011;56038;46.080;11.116;2024-03-17T13:25:43;0.50;;;0.50;;
68987;SDS011;56038;46.080;11.116;2024-03-17T13:30:46;0.77;;;0.43;;
68987;SDS011;56038;46.080;11.116;2024-03-17T13:35:48;0.80;;;0.50;;
68987;SDS011;56038;46.080;11.116;2024-03-17T13:40:50;0.50;;;0.40;;
68987;SDS011;56038;46.080;11.116;2024-03-17T13:45:53;0.68;;;0.60;;
68987;SDS011;56038;46.080;11.116;2024-03-17T13:50:55;0.93;;;0.60;;
68987;SDS011;56038;46.080;11.116;2024-03-17T13:55:56;0.90;;;0.60;;
68987;SDS011;56038;46.080;11.116;2024-03-17T14:00:59;0.77;;;0.47;;
68987;SDS011;56038;46.080;11.116;2024-03-17T14:06:01;0.40;;;0.40;;
68987;SDS011;56038;46.080;11.116;2024-03-17T14:11:03;1.38;;;1.27;;
68987;SDS011;56038;46.080;11.116;2024-03-17T14:16:06;3.00;;;2.42;;
68987;SDS011;56038;46.080;11.116;2024-03-17T14:21:08;3.55;;;3.25;;
68987;SDS011;56038;46.080;11.116;2024-03-17T14:26:10;5.43;;;4.65;;
68987;SDS011;56038;46.080;11.116;2024-03-17T14:31:14;6.55;;;5.85;;
68987;SDS011;56038;46.080;11.116;2024-03-17T14:36:15;7.68;;;6.30;;
68987;SDS011;56038;46.080;11.116;2024-03-17T14:41:18;8.05;;;7.25;;
68987;SDS011;56038;46.080;11.116;2024-03-17T14:46:21;9.85;;;7.57;;
68987;SDS011;56038;46.080;11.116;2024-03-17T14:51:22;8.15;;;7.35;;
68987;SDS011;56038;46.080;11.116;2024-03-17T14:56:24;10.13;;;7.78;;
68987;SDS011;56038;46.080;11.116;2024-03-17T15:01:27;8.88;;;7.97;;
68987;SDS011;56038;46.080;11.116;2024-03-17T15:06:30;9.63;;;8.10;;
68987;SDS011;56038;46.080;11.116;2024-03-17T15:11:32;9.93;;;8.50;;
68987;SDS011;56038;46.080;11.116;2024-03-17T15:16:35;7.75;;;7.05;;
68987;SDS011;56038;46.080;11.116;2024-03-17T15:21:37;8.98;;;8.07;;
68987;SDS011;56038;46.080;11.116;2024-03-17T15:26:39;8.20;;;7.10;;
68987;SDS011;56038;46.080;11.116;2024-03-17T15:31:42;8.30;;;7.22;;
68987;SDS011;56038;46.080;11.116;2024-03-17T15:36:43;11.70;;;7.32;;
68987;SDS011;56038;46.080;11.116;2024-03-17T15:41:45;10.32;;;9.02;;
68987;SDS011;56038;46.080;11.116;2024-03-17T15:46:49;9.95;;;8.98;;
68987;SDS011;56038;46.080;11.116;2024-03-17T15:51:50;8.68;;;7.78;;
68987;SDS011;56038;46.080;11.116;2024-03-17T15:56:52;9.77;;;8.32;;
68987;SDS011;56038;46.080;11.116;2024-03-17T16:01:55;10.30;;;8.63;;
68987;SDS011;56038;46.080;11.116;2024-03-17T16:06:57;9.23;;;8.25;;
68987;SDS011;56038;46.080;11.116;2024-03-17T16:11:58;9.10;;;8.20;;
68987;SDS011;56038;46.080;11.116;2024-03-17T16:17:02;9.88;;;8.20;;
68987;SDS011;56038;46.080;11.116;2024-03-17T16:22:09;10.18;;;8.20;;
68987;SDS011;56038;46.080;11.116;2024-03-17T16:27:11;8.32;;;7.38;;
68987;SDS011;56038;46.080;11.116;2024-03-17T16:32:15;11.40;;;9.30;;
68987;SDS011;56038;46.080;11.116;2024-03-17T16:37:18;11.47;;;9.30;;
68987;SDS011;56038;46.080;11.116;2024-03-17T16:42:20;12.65;;;10.93;;
68987;SDS011;56038;46.080;11.116;2024-03-17T16:47:27;13.10;;;11.13;;
68987;SDS011;56038;46.080;11.116;2024-03-17T16:52:31;16.40;;;12.98;;
68987;SDS011;56038;46.080;11.116;2024-03-17T16:57:33;14.55;;;11.85;;
68987;SDS011;56038;46.080;11.116;2024-03-17T17:02:37;14.95;;;12.70;;
68987;SDS011;56038;46.080;11.116;2024-03-17T17:07:39;17.52;;;13.73;;
68987;SDS011;56038;46.080;11.116;2024-03-17T17:12:41;14.43;;;11.50;;
68987;SDS011;56038;46.080;11.116;2024-03-17T17:17:45;16.20;;;13.00;;
68987;SDS011;56038;46.080;11.116;2024-03-17T17:22:47;16.25;;;13.40;;
68987;SDS011;56038;46.080;11.116;2024-03-17T17:27:49;18.10;;;13.88;;
68987;SDS011;56038;46.080;11.116;2024-03-17T17:32:52;13.98;;;11.95;;
68987;SDS011;56038;46.080;11.116;2024-03-17T17:37:54;14.27;;;12.05;;
68987;SDS011;56038;46.080;11.116;2024-03-17T17:42:55;12.55;;;11.00;;
68987;SDS011;56038;46.080;11.116;2024-03-17T17:47:58;15.00;;;11.40;;
68987;SDS011;56038;46.080;11.116;2024-03-17T17:53:00;12.38;;;11.07;;
68987;SDS011;56038;46.080;11.116;2024-03-17T17:58:02;13.77;;;11.30;;
68987;SDS011;56038;46.080;11.116;2024-03-17T18:03:06;16.30;;;13.05;;
68987;SDS011;56038;46.080;11.116;2024-03-17T18:08:07;15.93;;;13.25;;
68987;SDS011;56038;46.080;11.116;2024-03-17T18:13:09;16.63;;;14.30;;
68987;SDS011;56038;46.080;11.116;2024-03-17T18:18:12;19.30;;;16.48;;
68987;SDS011;56038;46.080;11.116;2024-03-17T18:23:14;18.58;;;14.77;;
68987;SDS011;56038;46.080;11.116;2024-03-17T18:28:17;16.92;;;15.13;;
68987;SDS011;56038;46.080;11.116;2024-03-17T18:33:22;17.55;;;14.93;;
68987;SDS011;56038;46.080;11.116;2024-03-17T18:38:23;16.00;;;13.48;;
68987;SDS011;56038;46.080;11.116;2024-03-17T18:43:26;14.20;;;12.70;;
68987;SDS011;56038;46.080;11.116;2024-03-17T18:48:29;14.63;;;12.38;;
68987;SDS011;56038;46.080;11.116;2024-03-17T18:53:31;16.65;;;13.00;;
68987;SDS011;56038;46.080;11.116;2024-03-17T18:58:33;14.43;;;11.77;;
68987;SDS011;56038;46.080;11.116;2024-03-17T19:03:36;15.48;;;13.88;;
68987;SDS011;56038;46.080;11.116;2024-03-17T19:08:39;18.10;;;14.00;;
68987;SDS011;56038;46.080;11.116;2024-03-17T19:13:42;19.60;;;15.55;;
68987;SDS011;56038;46.080;11.116;2024-03-17T19:18:45;18.90;;;15.63;;
68987;SDS011;56038;46.080;11.116;2024-03-17T19:23:47;18.85;;;15.10;;
68987;SDS011;56038;46.080;11.116;2024-03-17T19:28:48;14.75;;;13.00;;
68987;SDS011;56038;46.080;11.116;2024-03-17T19:33:52;13.77;;;12.32;;
68987;SDS011;56038;46.080;11.116;2024-03-17T19:38:54;10.50;;;9.40;;
68987;SDS011;56038;46.080;11.116;2024-03-17T19:43:56;10.48;;;8.35;;
68987;SDS011;56038;46.080;11.116;2024-03-17T19:49:00;12.63;;;9.48;;
68987;SDS011;56038;46.080;11.116;2024-03-17T19:54:03;11.98;;;9.68;;
68987;SDS011;56038;46.080;11.116;2024-03-17T19:59:06;11.15;;;9.60;;
68987;SDS011;56038;46.080;11.116;2024-03-17T20:04:09;11.82;;;9.50;;
68987;SDS011;56038;46.080;11.116;2024-03-17T20:09:11;14.68;;;11.65;;
68987;SDS011;56038;46.080;11.116;2024-03-17T20:14:14;12.85;;;10.40;;
68987;SDS011;56038;46.080;11.116;2024-03-17T20:19:17;16.10;;;12.10;;
68987;SDS011;56038;46.080;11.116;2024-03-17T20:24:20;11.57;;;10.23;;
68987;SDS011;56038;46.080;11.116;2024-03-17T20:29:22;12.73;;;10.15;;
68987;SDS011;56038;46.080;11.116;2024-03-17T20:34:26;10.65;;;8.88;;
68987;SDS011;56038;46.080;11.116;2024-03-17T20:39:28;10.73;;;9.30;;
68987;SDS011;56038;46.080;11.116;2024-03-17T20:44:31;11.57;;;9.63;;
68987;SDS011;56038;46.080;11.116;2024-03-17T20:49:34;11.75;;;10.15;;
68987;SDS011;56038;46.080;11.116;2024-03-17T20:54:36;11.75;;;9.50;;
68987;SDS011;56038;46.080;11.116;2024-03-17T20:59:38;14.32;;;11.38;;
68987;SDS011;56038;46.080;11.116;2024-03-17T21:04:41;13.88;;;11.85;;
68987;SDS011;56038;46.080;11.116;2024-03-17T21:09:43;16.50;;;12.35;;
68987;SDS011;56038;46.080;11.116;2024-03-17T21:14:45;17.98;;;13.23;;
68987;SDS011;56038;46.080;11.116;2024-03-17T21:19:50;15.13;;;12.82;;
68987;SDS011;56038;46.080;11.116;2024-03-17T21:29:54;15.77;;;13.27;;
68987;SDS011;56038;46.080;11.116;2024-03-17T21:34:58;14.20;;;12.63;;
68987;SDS011;56038;46.080;11.116;2024-03-17T21:40:01;16.58;;;13.13;;
68987;SDS011;56038;46.080;11.116;2024-03-17T21:45:06;16.77;;;13.13;;
68987;SDS011;56038;46.080;11.116;2024-03-17T21:50:11;15.88;;;13.32;;
68987;SDS011;56038;46.080;11.116;2024-03-17T21:55:13;13.50;;;11.35;;
68987;SDS011;56038;46.080;11.116;2024-03-17T22:00:15;10.68;;;9.45;;
68987;SDS011;56038;46.080;11.116;2024-03-17T22:05:21;15.60;;;12.30;;
68987;SDS011;56038;46.080;11.116;2024-03-17T22:10:23;12.90;;;10.65;;
68987;SDS011;56038;46.080;11.116;2024-03-17T22:15:25;12.20;;;10.10;;
68987;SDS011;56038;46.080;11.116;2024-03-17T22:20:28;13.32;;;11.40;;
68987;SDS011;56038;46.080;11.116;2024-03-17T22:25:30;12.65;;;10.93;;
68987;SDS011;56038;46.080;11.116;2024-03-17T22:30:32;15.80;;;11.38;;
68987;SDS011;56038;46.080;11.116;2024-03-17T22:35:36;13.75;;;12.27;;
68987;SDS011;56038;46.080;11.116;2024-03-17T22:40:37;12.93;;;10.48;;
68987;SDS011;56038;46.080;11.116;2024-03-17T22:45:39;13.32;;;11.93;;
68987;SDS011;56038;46.080;11.116;2024-03-17T22:50:42;16.13;;;11.90;;
68987;SDS011;56038;46.080;11.116;2024-03-17T22:55:46;15.05;;;11.73;;
68987;SDS011;56038;46.080;11.116;2024-03-17T23:00:49;12.38;;;10.63;;
68987;SDS011;56038;46.080;11.116;2024-03-17T23:05:53;13.93;;;11.88;;
68987;SDS011;56038;46.080;11.116;2024-03-17T23:10:57;16.80;;;13.82;;
68987;SDS011;56038;46.080;11.116;2024-03-17T23:16:00;12.60;;;11.23;;
68987;SDS011;56038;46.080;11.116;2024-03-17T23:21:03;14.90;;;12.55;;
68987;SDS011;56038;46.080;11.116;2024-03-17T23:26:05;13.85;;;12.35;;
68987;SDS011;56038;46.080;11.116;2024-03-17T23:31:07;14.23;;;12.70;;
68987;SDS011;56038;46.080;11.116;2024-03-17T23:36:11;17.45;;;13.02;;
68987;SDS011;56038;46.080;11.116;2024-03-17T23:41:15;14.82;;;13.18;;
68987;SDS011;56038;46.080;11.116;2024-03-17T23:46:17;14.40;;;12.32;;
68987;SDS011;56038;46.080;11.116;2024-03-17T23:51:20;15.30;;;13.18;;
68987;SDS011;56038;46.080;11.116;2024-03-17T23:56:22;14.05;;;11.82;;
